sensor_id;sensor_type;location;lat;lon;timestamp;P1;durP1;ratioP1;P2;durP2;ratioP2
45944;SDS011;31655;48.972;10.686;2024-01-16T00:02:40;11.63;;;6.18;;
45944;SDS011;31655;48.972;10.686;2024-01-16T00:05:06;8.00;;;5.22;;
45944;SDS011;31655;48.972;10.686;2024-01-16T00:07:32;16.43;;;6.67;;
45944;SDS011;31655;48.972;10.686;2024-01-16T00:09:59;13.88;;;5.95;;
45944;SDS011;31655;48.972;10.686;2024-01-16T00:12:25;9.15;;;5.63;;
45944;SDS011;31655;48.972;10.686;2024-01-16T00:14:50;8.00;;;5.05;;
45944;SDS011;31655;48.972;10.686;2024-01-16T00:17:16;12.18;;;5.53;;
45944;SDS011;31655;48.972;10.686;2024-01-16T00:19:41;11.13;;;5.63;;
45944;SDS011;31655;48.972;10.686;2024-01-16T00:22:07;10.70;;;5.60;;
45944;SDS011;31655;48.972;10.686;2024-01-16T00:24:33;13.57;;;6.45;;
45944;SDS011;31655;48.972;10.686;2024-01-16T00:26:58;8.20;;;5.25;;
45944;SDS011;31655;48.972;10.686;2024-01-16T00:29:24;10.75;;;5.22;;
45944;SDS011;31655;48.972;10.686;2024-01-16T00:31:50;12.35;;;5.72;;
45944;SDS011;31655;48.972;10.686;2024-01-16T00:34:15;11.98;;;5.72;;
45944;SDS011;31655;48.972;10.686;2024-01-16T00:36:41;13.27;;;6.80;;
45944;SDS011;31655;48.972;10.686;2024-01-16T00:41:42;13.10;;;5.53;;
45944;SDS011;31655;48.972;10.686;2024-01-16T00:44:08;14.68;;;5.80;;
45944;SDS011;31655;48.972;10.686;2024-01-16T00:46:34;10.02;;;5.70;;
45944;SDS011;31655;48.972;10.686;2024-01-16T00:48:59;13.23;;;6.35;;
45944;SDS011;31655;48.972;10.686;2024-01-16T00:51:25;18.15;;;6.72;;
45944;SDS011;31655;48.972;10.686;2024-01-16T00:53:50;10.75;;;6.00;;
45944;SDS011;31655;48.972;10.686;2024-01-16T00:56:16;13.05;;;7.03;;
45944;SDS011;31655;48.972;10.686;2024-01-16T00:58:41;13.95;;;6.95;;
45944;SDS011;31655;48.972;10.686;2024-01-16T01:01:07;10.43;;;6.53;;
45944;SDS011;31655;48.972;10.686;2024-01-16T01:03:32;9.05;;;6.15;;
45944;SDS011;31655;48.972;10.686;2024-01-16T01:05:59;11.00;;;6.50;;
45944;SDS011;31655;48.972;10.686;2024-01-16T01:08:25;14.98;;;6.32;;
45944;SDS011;31655;48.972;10.686;2024-01-16T01:10:50;12.15;;;6.65;;
45944;SDS011;31655;48.972;10.686;2024-01-16T01:13:16;13.18;;;6.80;;
45944;SDS011;31655;48.972;10.686;2024-01-16T01:15:42;13.05;;;6.65;;
45944;SDS011;31655;48.972;10.686;2024-01-16T01:18:07;11.88;;;6.40;;
45944;SDS011;31655;48.972;10.686;2024-01-16T01:20:33;9.38;;;6.32;;
45944;SDS011;31655;48.972;10.686;2024-01-16T01:22:58;11.60;;;6.57;;
45944;SDS011;31655;48.972;10.686;2024-01-16T01:25:25;12.85;;;6.25;;
45944;SDS011;31655;48.972;10.686;2024-01-16T01:27:51;13.25;;;6.60;;
45944;SDS011;31655;48.972;10.686;2024-01-16T01:30:17;10.85;;;6.20;;
45944;SDS011;31655;48.972;10.686;2024-01-16T01:32:43;14.52;;;5.72;;
45944;SDS011;31655;48.972;10.686;2024-01-16T01:35:09;8.82;;;5.53;;
45944;SDS011;31655;48.972;10.686;2024-01-16T01:37:35;11.52;;;6.50;;
45944;SDS011;31655;48.972;10.686;2024-01-16T01:40:01;14.07;;;6.07;;
45944;SDS011;31655;48.972;10.686;2024-01-16T01:42:26;14.98;;;6.55;;
45944;SDS011;31655;48.972;10.686;2024-01-16T01:44:52;12.32;;;5.78;;
45944;SDS011;31655;48.972;10.686;2024-01-16T01:47:17;10.57;;;6.32;;
45944;SDS011;31655;48.972;10.686;2024-01-16T01:49:43;9.77;;;5.75;;
45944;SDS011;31655;48.972;10.686;2024-01-16T01:52:08;13.68;;;6.30;;
45944;SDS011;31655;48.972;10.686;2024-01-16T01:54:34;10.68;;;6.28;;
45944;SDS011;31655;48.972;10.686;2024-01-16T01:57:02;8.55;;;5.60;;
45944;SDS011;31655;48.972;10.686;2024-01-16T01:59:29;12.32;;;6.25;;
45944;SDS011;31655;48.972;10.686;2024-01-16T02:01:55;12.07;;;6.57;;
45944;SDS011;31655;48.972;10.686;2024-01-16T02:04:21;11.55;;;7.07;;
45944;SDS011;31655;48.972;10.686;2024-01-16T02:06:48;11.35;;;6.00;;
45944;SDS011;31655;48.972;10.686;2024-01-16T02:09:14;18.00;;;6.35;;
45944;SDS011;31655;48.972;10.686;2024-01-16T02:11:40;16.40;;;8.13;;
45944;SDS011;31655;48.972;10.686;2024-01-16T02:14:06;10.63;;;5.35;;
45944;SDS011;31655;48.972;10.686;2024-01-16T02:16:35;12.95;;;6.13;;
45944;SDS011;31655;48.972;10.686;2024-01-16T02:19:03;9.27;;;6.18;;
45944;SDS011;31655;48.972;10.686;2024-01-16T02:21:30;12.10;;;6.53;;
45944;SDS011;31655;48.972;10.686;2024-01-16T02:24:11;14.02;;;6.38;;
45944;SDS011;31655;48.972;10.686;2024-01-16T02:26:37;14.02;;;5.88;;
45944;SDS011;31655;48.972;10.686;2024-01-16T02:29:03;8.88;;;5.97;;
45944;SDS011;31655;48.972;10.686;2024-01-16T02:31:29;13.80;;;6.90;;
45944;SDS011;31655;48.972;10.686;2024-01-16T02:33:55;13.55;;;7.43;;
45944;SDS011;31655;48.972;10.686;2024-01-16T02:36:21;15.25;;;6.80;;
45944;SDS011;31655;48.972;10.686;2024-01-16T02:38:46;11.57;;;7.30;;
45944;SDS011;31655;48.972;10.686;2024-01-16T02:41:15;12.30;;;5.80;;
45944;SDS011;31655;48.972;10.686;2024-01-16T02:43:41;10.60;;;6.03;;
45944;SDS011;31655;48.972;10.686;2024-01-16T02:46:07;17.20;;;6.45;;
45944;SDS011;31655;48.972;10.686;2024-01-16T02:48:34;13.90;;;6.82;;
45944;SDS011;31655;48.972;10.686;2024-01-16T02:51:00;13.25;;;6.88;;
45944;SDS011;31655;48.972;10.686;2024-01-16T02:53:25;14.35;;;6.55;;
45944;SDS011;31655;48.972;10.686;2024-01-16T02:55:51;13.90;;;6.68;;
45944;SDS011;31655;48.972;10.686;2024-01-16T02:58:18;11.00;;;6.65;;
45944;SDS011;31655;48.972;10.686;2024-01-16T03:00:43;17.80;;;6.80;;
45944;SDS011;31655;48.972;10.686;2024-01-16T03:03:09;21.13;;;8.15;;
45944;SDS011;31655;48.972;10.686;2024-01-16T03:05:36;16.70;;;7.80;;
45944;SDS011;31655;48.972;10.686;2024-01-16T03:08:01;23.00;;;8.88;;
45944;SDS011;31655;48.972;10.686;2024-01-16T03:10:27;12.65;;;5.88;;
45944;SDS011;31655;48.972;10.686;2024-01-16T03:12:52;19.48;;;8.23;;
45944;SDS011;31655;48.972;10.686;2024-01-16T03:15:18;21.52;;;9.55;;
45944;SDS011;31655;48.972;10.686;2024-01-16T03:17:43;19.75;;;7.75;;
45944;SDS011;31655;48.972;10.686;2024-01-16T03:20:09;14.35;;;7.32;;
45944;SDS011;31655;48.972;10.686;2024-01-16T03:22:35;12.82;;;7.55;;
45944;SDS011;31655;48.972;10.686;2024-01-16T03:25:00;12.60;;;6.80;;
45944;SDS011;31655;48.972;10.686;2024-01-16T03:27:27;14.32;;;7.20;;
45944;SDS011;31655;48.972;10.686;2024-01-16T03:29:53;13.35;;;7.45;;
45944;SDS011;31655;48.972;10.686;2024-01-16T03:32:18;17.60;;;7.13;;
45944;SDS011;31655;48.972;10.686;2024-01-16T03:34:44;17.38;;;7.15;;
45944;SDS011;31655;48.972;10.686;2024-01-16T03:37:09;13.70;;;7.68;;
45944;SDS011;31655;48.972;10.686;2024-01-16T03:39:35;15.65;;;7.72;;
45944;SDS011;31655;48.972;10.686;2024-01-16T03:42:01;16.10;;;7.78;;
45944;SDS011;31655;48.972;10.686;2024-01-16T03:44:26;14.20;;;7.97;;
45944;SDS011;31655;48.972;10.686;2024-01-16T03:46:52;23.23;;;10.50;;
45944;SDS011;31655;48.972;10.686;2024-01-16T03:49:17;17.65;;;8.10;;
45944;SDS011;31655;48.972;10.686;2024-01-16T03:51:43;13.80;;;7.63;;
45944;SDS011;31655;48.972;10.686;2024-01-16T03:54:11;15.50;;;7.43;;
45944;SDS011;31655;48.972;10.686;2024-01-16T03:56:38;13.65;;;6.93;;
45944;SDS011;31655;48.972;10.686;2024-01-16T04:04:15;14.57;;;6.80;;
45944;SDS011;31655;48.972;10.686;2024-01-16T04:32:38;14.07;;;8.10;;
45944;SDS011;31655;48.972;10.686;2024-01-16T04:35:04;23.60;;;7.78;;
45944;SDS011;31655;48.972;10.686;2024-01-16T06:05:59;15.68;;;8.15;;
45944;SDS011;31655;48.972;10.686;2024-01-16T06:08:25;20.00;;;9.50;;
45944;SDS011;31655;48.972;10.686;2024-01-16T06:10:51;18.17;;;8.60;;
45944;SDS011;31655;48.972;10.686;2024-01-16T06:13:18;17.38;;;9.18;;
45944;SDS011;31655;48.972;10.686;2024-01-16T06:15:43;15.32;;;8.43;;
45944;SDS011;31655;48.972;10.686;2024-01-16T06:18:09;22.98;;;9.18;;
45944;SDS011;31655;48.972;10.686;2024-01-16T06:20:35;18.38;;;8.82;;
45944;SDS011;31655;48.972;10.686;2024-01-16T06:23:00;18.35;;;8.27;;
45944;SDS011;31655;48.972;10.686;2024-01-16T06:25:26;15.63;;;7.95;;
45944;SDS011;31655;48.972;10.686;2024-01-16T06:58:57;19.20;;;7.68;;
45944;SDS011;31655;48.972;10.686;2024-01-16T07:19:31;21.23;;;8.60;;
45944;SDS011;31655;48.972;10.686;2024-01-16T07:21:56;17.92;;;7.78;;
45944;SDS011;31655;48.972;10.686;2024-01-16T07:29:32;14.13;;;6.53;;
45944;SDS011;31655;48.972;10.686;2024-01-16T07:31:58;13.73;;;6.32;;
45944;SDS011;31655;48.972;10.686;2024-01-16T07:34:24;16.23;;;7.00;;
45944;SDS011;31655;48.972;10.686;2024-01-16T07:36:50;15.05;;;7.30;;
45944;SDS011;31655;48.972;10.686;2024-01-16T07:39:16;14.32;;;6.53;;
45944;SDS011;31655;48.972;10.686;2024-01-16T07:44:17;14.32;;;6.80;;
45944;SDS011;31655;48.972;10.686;2024-01-16T07:46:43;18.90;;;8.80;;
45944;SDS011;31655;48.972;10.686;2024-01-16T08:20:12;10.90;;;5.28;;
45944;SDS011;31655;48.972;10.686;2024-01-16T08:22:38;7.95;;;4.97;;
45944;SDS011;31655;48.972;10.686;2024-01-16T08:25:04;12.95;;;4.53;;
45944;SDS011;31655;48.972;10.686;2024-01-16T08:27:30;12.38;;;4.50;;
45944;SDS011;31655;48.972;10.686;2024-01-16T08:29:56;9.00;;;5.10;;
45944;SDS011;31655;48.972;10.686;2024-01-16T08:47:48;11.38;;;5.03;;
45944;SDS011;31655;48.972;10.686;2024-01-16T08:55:20;8.80;;;5.03;;
45944;SDS011;31655;48.972;10.686;2024-01-16T08:57:46;12.13;;;5.07;;
45944;SDS011;31655;48.972;10.686;2024-01-16T09:00:12;9.63;;;4.75;;
45944;SDS011;31655;48.972;10.686;2024-01-16T09:02:38;15.93;;;4.65;;
45944;SDS011;31655;48.972;10.686;2024-01-16T09:05:04;7.95;;;4.10;;
45944;SDS011;31655;48.972;10.686;2024-01-16T09:07:30;11.15;;;5.72;;
45944;SDS011;31655;48.972;10.686;2024-01-16T09:09:55;8.07;;;4.18;;
45944;SDS011;31655;48.972;10.686;2024-01-16T09:12:21;6.70;;;4.28;;
45944;SDS011;31655;48.972;10.686;2024-01-16T09:14:46;11.48;;;4.00;;
45944;SDS011;31655;48.972;10.686;2024-01-16T09:17:12;5.63;;;3.40;;
45944;SDS011;31655;48.972;10.686;2024-01-16T09:19:38;6.15;;;3.92;;
45944;SDS011;31655;48.972;10.686;2024-01-16T09:22:03;7.20;;;4.10;;
45944;SDS011;31655;48.972;10.686;2024-01-16T09:24:29;6.05;;;3.95;;
45944;SDS011;31655;48.972;10.686;2024-01-16T09:26:55;7.18;;;3.90;;
45944;SDS011;31655;48.972;10.686;2024-01-16T09:29:21;9.20;;;3.80;;
45944;SDS011;31655;48.972;10.686;2024-01-16T09:31:47;8.73;;;4.18;;
45944;SDS011;31655;48.972;10.686;2024-01-16T09:34:13;8.00;;;3.63;;
45944;SDS011;31655;48.972;10.686;2024-01-16T09:36:38;7.03;;;3.45;;
45944;SDS011;31655;48.972;10.686;2024-01-16T09:39:05;8.38;;;3.90;;
45944;SDS011;31655;48.972;10.686;2024-01-16T09:41:35;8.27;;;4.20;;
45944;SDS011;31655;48.972;10.686;2024-01-16T09:44:01;6.45;;;3.92;;
45944;SDS011;31655;48.972;10.686;2024-01-16T09:46:27;7.75;;;3.80;;
45944;SDS011;31655;48.972;10.686;2024-01-16T09:48:55;7.38;;;4.35;;
45944;SDS011;31655;48.972;10.686;2024-01-16T09:51:21;6.20;;;3.58;;
45944;SDS011;31655;48.972;10.686;2024-01-16T09:53:47;8.85;;;3.85;;
45944;SDS011;31655;48.972;10.686;2024-01-16T09:56:16;7.60;;;4.10;;
45944;SDS011;31655;48.972;10.686;2024-01-16T09:58:43;7.38;;;4.07;;
45944;SDS011;31655;48.972;10.686;2024-01-16T10:01:11;6.82;;;4.15;;
45944;SDS011;31655;48.972;10.686;2024-01-16T10:03:38;9.18;;;4.03;;
45944;SDS011;31655;48.972;10.686;2024-01-16T10:06:06;10.10;;;4.80;;
45944;SDS011;31655;48.972;10.686;2024-01-16T10:08:32;12.30;;;5.53;;
45944;SDS011;31655;48.972;10.686;2024-01-16T10:10:58;9.48;;;4.57;;
45944;SDS011;31655;48.972;10.686;2024-01-16T10:13:25;7.43;;;4.30;;
45944;SDS011;31655;48.972;10.686;2024-01-16T10:15:51;9.85;;;4.82;;
45944;SDS011;31655;48.972;10.686;2024-01-16T10:18:27;8.95;;;4.95;;
45944;SDS011;31655;48.972;10.686;2024-01-16T10:20:57;10.32;;;5.30;;
45944;SDS011;31655;48.972;10.686;2024-01-16T10:23:23;11.82;;;5.55;;
45944;SDS011;31655;48.972;10.686;2024-01-16T10:26:08;9.18;;;4.95;;
45944;SDS011;31655;48.972;10.686;2024-01-16T10:28:44;12.80;;;4.97;;
45944;SDS011;31655;48.972;10.686;2024-01-16T10:31:10;10.93;;;4.43;;
45944;SDS011;31655;48.972;10.686;2024-01-16T10:33:36;10.65;;;4.80;;
45944;SDS011;31655;48.972;10.686;2024-01-16T10:38:41;9.93;;;5.75;;
45944;SDS011;31655;48.972;10.686;2024-01-16T10:41:12;11.88;;;5.13;;
45944;SDS011;31655;48.972;10.686;2024-01-16T10:43:39;15.13;;;5.55;;
45944;SDS011;31655;48.972;10.686;2024-01-16T10:46:09;8.82;;;4.32;;
45944;SDS011;31655;48.972;10.686;2024-01-16T10:48:39;9.65;;;5.25;;
45944;SDS011;31655;48.972;10.686;2024-01-16T10:51:13;10.00;;;5.07;;
45944;SDS011;31655;48.972;10.686;2024-01-16T10:53:43;11.50;;;4.88;;
45944;SDS011;31655;48.972;10.686;2024-01-16T10:56:11;10.27;;;5.40;;
45944;SDS011;31655;48.972;10.686;2024-01-16T10:58:38;11.30;;;6.32;;
45944;SDS011;31655;48.972;10.686;2024-01-16T11:01:07;7.13;;;4.47;;
45944;SDS011;31655;48.972;10.686;2024-01-16T11:03:48;11.68;;;4.57;;
45944;SDS011;31655;48.972;10.686;2024-01-16T11:06:16;13.02;;;5.13;;
45944;SDS011;31655;48.972;10.686;2024-01-16T11:08:42;13.68;;;5.68;;
45944;SDS011;31655;48.972;10.686;2024-01-16T11:11:10;8.05;;;4.97;;
45944;SDS011;31655;48.972;10.686;2024-01-16T11:13:38;7.85;;;4.18;;
45944;SDS011;31655;48.972;10.686;2024-01-16T11:16:05;7.72;;;4.15;;
45944;SDS011;31655;48.972;10.686;2024-01-16T11:18:34;8.60;;;5.00;;
45944;SDS011;31655;48.972;10.686;2024-01-16T11:21:02;8.38;;;4.78;;
45944;SDS011;31655;48.972;10.686;2024-01-16T11:23:30;7.43;;;4.53;;
45944;SDS011;31655;48.972;10.686;2024-01-16T11:25:56;10.45;;;5.53;;
45944;SDS011;31655;48.972;10.686;2024-01-16T11:28:26;10.95;;;5.32;;
45944;SDS011;31655;48.972;10.686;2024-01-16T11:30:56;10.65;;;4.80;;
45944;SDS011;31655;48.972;10.686;2024-01-16T11:33:41;9.65;;;4.88;;
45944;SDS011;31655;48.972;10.686;2024-01-16T11:36:15;11.55;;;5.55;;
45944;SDS011;31655;48.972;10.686;2024-01-16T11:39:16;11.20;;;6.03;;
45944;SDS011;31655;48.972;10.686;2024-01-16T11:41:51;12.35;;;4.68;;
45944;SDS011;31655;48.972;10.686;2024-01-16T11:44:36;12.27;;;5.20;;
45944;SDS011;31655;48.972;10.686;2024-01-16T11:47:06;11.13;;;4.60;;
45944;SDS011;31655;48.972;10.686;2024-01-16T11:49:33;9.10;;;4.68;;
45944;SDS011;31655;48.972;10.686;2024-01-16T11:52:02;9.07;;;5.07;;
45944;SDS011;31655;48.972;10.686;2024-01-16T11:54:28;11.43;;;3.88;;
45944;SDS011;31655;48.972;10.686;2024-01-16T11:57:18;7.72;;;4.18;;
45944;SDS011;31655;48.972;10.686;2024-01-16T12:00:00;17.50;;;4.85;;
45944;SDS011;31655;48.972;10.686;2024-01-16T12:05:14;8.25;;;3.88;;
45944;SDS011;31655;48.972;10.686;2024-01-16T12:07:46;7.47;;;4.22;;
45944;SDS011;31655;48.972;10.686;2024-01-16T12:10:17;9.38;;;4.60;;
45944;SDS011;31655;48.972;10.686;2024-01-16T12:12:44;8.77;;;4.90;;
45944;SDS011;31655;48.972;10.686;2024-01-16T12:15:14;7.80;;;4.28;;
45944;SDS011;31655;48.972;10.686;2024-01-16T12:20:21;8.98;;;4.45;;
45944;SDS011;31655;48.972;10.686;2024-01-16T12:22:54;7.60;;;4.65;;
45944;SDS011;31655;48.972;10.686;2024-01-16T12:25:25;10.73;;;4.53;;
45944;SDS011;31655;48.972;10.686;2024-01-16T12:27:55;11.63;;;5.20;;
45944;SDS011;31655;48.972;10.686;2024-01-16T12:30:23;13.13;;;4.85;;
45944;SDS011;31655;48.972;10.686;2024-01-16T12:32:49;7.88;;;4.88;;
45944;SDS011;31655;48.972;10.686;2024-01-16T12:35:19;12.40;;;4.90;;
45944;SDS011;31655;48.972;10.686;2024-01-16T12:37:57;6.65;;;4.43;;
45944;SDS011;31655;48.972;10.686;2024-01-16T12:40:26;12.07;;;4.82;;
45944;SDS011;31655;48.972;10.686;2024-01-16T12:42:52;9.07;;;4.63;;
45944;SDS011;31655;48.972;10.686;2024-01-16T12:45:18;8.40;;;4.68;;
45944;SDS011;31655;48.972;10.686;2024-01-16T12:47:49;13.50;;;3.83;;
45944;SDS011;31655;48.972;10.686;2024-01-16T12:50:26;11.57;;;3.50;;
45944;SDS011;31655;48.972;10.686;2024-01-16T12:55:31;6.95;;;3.88;;
45944;SDS011;31655;48.972;10.686;2024-01-16T13:00:46;10.65;;;4.13;;
45944;SDS011;31655;48.972;10.686;2024-01-16T13:03:20;11.52;;;3.95;;
45944;SDS011;31655;48.972;10.686;2024-01-16T13:05:58;10.32;;;4.55;;
45944;SDS011;31655;48.972;10.686;2024-01-16T13:08:25;7.25;;;4.30;;
45944;SDS011;31655;48.972;10.686;2024-01-16T13:11:04;14.93;;;6.10;;
45944;SDS011;31655;48.972;10.686;2024-01-16T13:13:34;13.43;;;5.85;;
45944;SDS011;31655;48.972;10.686;2024-01-16T13:16:02;14.35;;;5.47;;
45944;SDS011;31655;48.972;10.686;2024-01-16T13:18:32;10.80;;;5.28;;
45944;SDS011;31655;48.972;10.686;2024-01-16T13:20:59;8.57;;;6.32;;
45944;SDS011;31655;48.972;10.686;2024-01-16T13:23:25;10.38;;;4.63;;
45944;SDS011;31655;48.972;10.686;2024-01-16T13:25:52;18.20;;;6.88;;
45944;SDS011;31655;48.972;10.686;2024-01-16T13:28:21;7.90;;;4.45;;
45944;SDS011;31655;48.972;10.686;2024-01-16T13:30:47;11.20;;;4.07;;
45944;SDS011;31655;48.972;10.686;2024-01-16T13:33:13;10.38;;;4.07;;
45944;SDS011;31655;48.972;10.686;2024-01-16T13:35:41;12.40;;;6.57;;
45944;SDS011;31655;48.972;10.686;2024-01-16T13:38:14;12.32;;;5.65;;
45944;SDS011;31655;48.972;10.686;2024-01-16T13:40:41;48.05;;;7.25;;
45944;SDS011;31655;48.972;10.686;2024-01-16T13:43:06;17.73;;;8.02;;
45944;SDS011;31655;48.972;10.686;2024-01-16T13:45:32;10.63;;;5.43;;
45944;SDS011;31655;48.972;10.686;2024-01-16T13:48:00;34.42;;;13.35;;
45944;SDS011;31655;48.972;10.686;2024-01-16T13:50:26;39.10;;;16.08;;
45944;SDS011;31655;48.972;10.686;2024-01-16T13:52:52;15.65;;;6.85;;
45944;SDS011;31655;48.972;10.686;2024-01-16T13:55:18;13.50;;;4.30;;
45944;SDS011;31655;48.972;10.686;2024-01-16T13:57:44;9.45;;;5.03;;
45944;SDS011;31655;48.972;10.686;2024-01-16T14:00:10;10.15;;;4.43;;
45944;SDS011;31655;48.972;10.686;2024-01-16T14:02:42;9.45;;;4.07;;
45944;SDS011;31655;48.972;10.686;2024-01-16T14:05:13;12.35;;;5.60;;
45944;SDS011;31655;48.972;10.686;2024-01-16T14:07:47;15.65;;;5.22;;
45944;SDS011;31655;48.972;10.686;2024-01-16T14:10:18;14.30;;;6.03;;
45944;SDS011;31655;48.972;10.686;2024-01-16T14:12:47;30.08;;;11.90;;
45944;SDS011;31655;48.972;10.686;2024-01-16T14:15:14;154.35;;;49.88;;
45944;SDS011;31655;48.972;10.686;2024-01-16T14:17:43;13.35;;;6.10;;
45944;SDS011;31655;48.972;10.686;2024-01-16T14:20:10;8.82;;;4.55;;
45944;SDS011;31655;48.972;10.686;2024-01-16T14:22:36;8.55;;;5.22;;
45944;SDS011;31655;48.972;10.686;2024-01-16T14:25:05;10.27;;;5.30;;
45944;SDS011;31655;48.972;10.686;2024-01-16T14:30:09;13.80;;;6.05;;
45944;SDS011;31655;48.972;10.686;2024-01-16T14:32:36;32.10;;;12.50;;
45944;SDS011;31655;48.972;10.686;2024-01-16T14:35:04;47.92;;;15.93;;
45944;SDS011;31655;48.972;10.686;2024-01-16T14:37:30;26.73;;;9.20;;
45944;SDS011;31655;48.972;10.686;2024-01-16T14:39:57;12.60;;;6.30;;
45944;SDS011;31655;48.972;10.686;2024-01-16T14:42:26;15.02;;;7.13;;
45944;SDS011;31655;48.972;10.686;2024-01-16T14:44:52;13.07;;;5.82;;
45944;SDS011;31655;48.972;10.686;2024-01-16T14:47:17;14.05;;;5.88;;
45944;SDS011;31655;48.972;10.686;2024-01-16T14:49:43;12.63;;;6.00;;
45944;SDS011;31655;48.972;10.686;2024-01-16T14:52:08;12.35;;;6.50;;
45944;SDS011;31655;48.972;10.686;2024-01-16T14:54:34;19.10;;;7.70;;
45944;SDS011;31655;48.972;10.686;2024-01-16T14:56:59;8.73;;;5.93;;
45944;SDS011;31655;48.972;10.686;2024-01-16T14:59:25;9.50;;;4.85;;
45944;SDS011;31655;48.972;10.686;2024-01-16T15:01:51;8.65;;;5.05;;
45944;SDS011;31655;48.972;10.686;2024-01-16T15:04:18;14.13;;;5.70;;
45944;SDS011;31655;48.972;10.686;2024-01-16T15:06:43;19.77;;;9.50;;
45944;SDS011;31655;48.972;10.686;2024-01-16T15:09:09;15.55;;;5.82;;
45944;SDS011;31655;48.972;10.686;2024-01-16T15:11:37;19.30;;;8.05;;
45944;SDS011;31655;48.972;10.686;2024-01-16T15:14:03;43.60;;;17.30;;
45944;SDS011;31655;48.972;10.686;2024-01-16T15:16:28;217.57;;;62.45;;
45944;SDS011;31655;48.972;10.686;2024-01-16T15:18:55;111.30;;;31.65;;
45944;SDS011;31655;48.972;10.686;2024-01-16T15:21:21;14.35;;;7.45;;
45944;SDS011;31655;48.972;10.686;2024-01-16T15:23:47;12.88;;;7.28;;
45944;SDS011;31655;48.972;10.686;2024-01-16T15:26:13;10.07;;;6.10;;
45944;SDS011;31655;48.972;10.686;2024-01-16T15:28:44;14.82;;;5.70;;
45944;SDS011;31655;48.972;10.686;2024-01-16T15:31:09;11.95;;;5.15;;
45944;SDS011;31655;48.972;10.686;2024-01-16T15:33:35;10.77;;;5.93;;
45944;SDS011;31655;48.972;10.686;2024-01-16T15:36:01;11.65;;;5.88;;
45944;SDS011;31655;48.972;10.686;2024-01-16T15:38:27;11.27;;;5.88;;
45944;SDS011;31655;48.972;10.686;2024-01-16T15:40:53;13.77;;;5.88;;
45944;SDS011;31655;48.972;10.686;2024-01-16T15:43:18;10.48;;;4.63;;
45944;SDS011;31655;48.972;10.686;2024-01-16T15:45:44;29.02;;;13.35;;
45944;SDS011;31655;48.972;10.686;2024-01-16T15:48:09;102.05;;;36.72;;
45944;SDS011;31655;48.972;10.686;2024-01-16T15:50:35;146.00;;;55.97;;
45944;SDS011;31655;48.972;10.686;2024-01-16T15:53:01;137.60;;;53.75;;
45944;SDS011;31655;48.972;10.686;2024-01-16T15:55:26;84.50;;;35.08;;
45944;SDS011;31655;48.972;10.686;2024-01-16T15:57:52;25.90;;;12.25;;
45944;SDS011;31655;48.972;10.686;2024-01-16T16:00:19;12.90;;;7.30;;
45944;SDS011;31655;48.972;10.686;2024-01-16T16:02:45;14.70;;;5.78;;
45944;SDS011;31655;48.972;10.686;2024-01-16T16:05:13;12.73;;;5.68;;
45944;SDS011;31655;48.972;10.686;2024-01-16T16:07:38;13.27;;;5.63;;
45944;SDS011;31655;48.972;10.686;2024-01-16T16:10:04;13.05;;;5.30;;
45944;SDS011;31655;48.972;10.686;2024-01-16T16:12:31;7.38;;;5.30;;
45944;SDS011;31655;48.972;10.686;2024-01-16T16:14:56;10.05;;;5.55;;
45944;SDS011;31655;48.972;10.686;2024-01-16T16:17:22;17.50;;;5.18;;
45944;SDS011;31655;48.972;10.686;2024-01-16T16:19:47;14.63;;;5.43;;
45944;SDS011;31655;48.972;10.686;2024-01-16T16:22:14;10.68;;;4.72;;
45944;SDS011;31655;48.972;10.686;2024-01-16T16:24:40;12.20;;;6.18;;
45944;SDS011;31655;48.972;10.686;2024-01-16T16:27:25;8.85;;;4.25;;
45944;SDS011;31655;48.972;10.686;2024-01-16T16:29:54;19.65;;;9.10;;
45944;SDS011;31655;48.972;10.686;2024-01-16T16:32:20;25.85;;;13.18;;
45944;SDS011;31655;48.972;10.686;2024-01-16T16:34:47;18.75;;;10.50;;
45944;SDS011;31655;48.972;10.686;2024-01-16T16:37:13;15.93;;;5.63;;
45944;SDS011;31655;48.972;10.686;2024-01-16T16:39:40;15.80;;;5.88;;
45944;SDS011;31655;48.972;10.686;2024-01-16T16:42:05;25.70;;;12.18;;
45944;SDS011;31655;48.972;10.686;2024-01-16T16:44:33;23.02;;;10.93;;
45944;SDS011;31655;48.972;10.686;2024-01-16T16:46:58;30.98;;;15.82;;
45944;SDS011;31655;48.972;10.686;2024-01-16T16:49:24;26.77;;;11.40;;
45944;SDS011;31655;48.972;10.686;2024-01-16T16:51:50;22.40;;;11.30;;
45944;SDS011;31655;48.972;10.686;2024-01-16T16:54:15;49.58;;;22.50;;
45944;SDS011;31655;48.972;10.686;2024-01-16T16:56:41;27.83;;;13.32;;
45944;SDS011;31655;48.972;10.686;2024-01-16T16:59:07;28.95;;;13.63;;
45944;SDS011;31655;48.972;10.686;2024-01-16T17:01:34;26.20;;;13.27;;
45944;SDS011;31655;48.972;10.686;2024-01-16T17:04:03;62.58;;;22.48;;
45944;SDS011;31655;48.972;10.686;2024-01-16T17:06:29;23.00;;;8.98;;
45944;SDS011;31655;48.972;10.686;2024-01-16T17:08:54;16.60;;;7.82;;
45944;SDS011;31655;48.972;10.686;2024-01-16T17:11:20;22.40;;;8.88;;
45944;SDS011;31655;48.972;10.686;2024-01-16T17:13:45;24.20;;;10.00;;
45944;SDS011;31655;48.972;10.686;2024-01-16T17:16:11;23.73;;;10.65;;
45944;SDS011;31655;48.972;10.686;2024-01-16T19:28:53;12.63;;;5.88;;
45944;SDS011;31655;48.972;10.686;2024-01-16T23:27:15;19.27;;;8.77;;
45944;SDS011;31655;48.972;10.686;2024-01-16T23:29:41;15.88;;;7.28;;
45944;SDS011;31655;48.972;10.686;2024-01-16T23:32:07;14.25;;;8.23;;
45944;SDS011;31655;48.972;10.686;2024-01-16T23:34:33;21.48;;;9.18;;
45944;SDS011;31655;48.972;10.686;2024-01-16T23:37:00;16.10;;;8.63;;
45944;SDS011;31655;48.972;10.686;2024-01-16T23:39:27;21.92;;;9.23;;
45944;SDS011;31655;48.972;10.686;2024-01-16T23:41:55;21.60;;;8.93;;
45944;SDS011;31655;48.972;10.686;2024-01-16T23:44:21;18.95;;;8.73;;
45944;SDS011;31655;48.972;10.686;2024-01-16T23:46:48;18.05;;;8.57;;
45944;SDS011;31655;48.972;10.686;2024-01-16T23:49:14;17.52;;;8.40;;
45944;SDS011;31655;48.972;10.686;2024-01-16T23:51:40;17.52;;;8.63;;
45944;SDS011;31655;48.972;10.686;2024-01-16T23:54:06;16.38;;;7.78;;
45944;SDS011;31655;48.972;10.686;2024-01-16T23:56:32;16.92;;;8.65;;
45944;SDS011;31655;48.972;10.686;2024-01-16T23:58:57;16.67;;;9.13;;
